createdAt,value
2022-12-25T00:01:21.412Z,97249.06
2022-12-25T00:03:48.458Z,97241.38
2022-12-25T00:06:14.905Z,97240.22
2022-12-25T00:08:42.159Z,97241.56
2022-12-25T00:11:13.713Z,97237.16
2022-12-25T00:13:40.283Z,97235.06
2022-12-25T00:16:16.034Z,97225.84
2022-12-25T00:18:42.429Z,97214.25
2022-12-25T00:21:08.830Z,97205.59
2022-12-25T00:23:35.575Z,97219.78
2022-12-25T00:26:11.118Z,97226.97
2022-12-25T00:28:37.626Z,97232.25
2022-12-25T00:31:12.740Z,97218.63
2022-12-25T00:33:41.917Z,97229.97
2022-12-25T00:36:09.431Z,97233.94
2022-12-25T00:38:37.703Z,97251.50
2022-12-25T00:41:10.245Z,97249.38
2022-12-25T00:43:38.386Z,97240.53
2022-12-25T00:46:06.258Z,97252.44
2022-12-25T00:48:33.659Z,97232.84
2022-12-25T00:51:04.125Z,97231.41
2022-12-25T00:53:31.361Z,97242.94
2022-12-25T00:56:00.856Z,97231.41
2022-12-25T00:58:30.143Z,97227.97
2022-12-25T01:00:56.815Z,97217.56
2022-12-25T01:03:23.405Z,97230.13
2022-12-25T01:05:58.474Z,97235.13
2022-12-25T01:08:25.308Z,97233.38
2022-12-25T01:11:04.210Z,97234.63
2022-12-25T01:13:31.607Z,97245.47
2022-12-25T01:15:58.191Z,97238.53
2022-12-25T01:18:25.205Z,97237.28
2022-12-25T01:20:51.754Z,97242.59
2022-12-25T01:23:18.111Z,97231.69
2022-12-25T01:25:44.474Z,97226.50
2022-12-25T01:28:10.836Z,97227.56
2022-12-25T01:30:37.226Z,97228.53
2022-12-25T01:33:03.626Z,97230.91
2022-12-25T01:35:29.991Z,97238.97
2022-12-25T01:37:56.416Z,97237.47
2022-12-25T01:40:22.774Z,97236.44
2022-12-25T01:42:49.183Z,97232.59
2022-12-25T01:45:33.619Z,97236.34
2022-12-25T01:48:04.117Z,97233.47
2022-12-25T01:50:30.865Z,97240.19
2022-12-25T01:52:58.140Z,97221.09
2022-12-25T01:55:25.541Z,97229.84
2022-12-25T01:57:52.089Z,97224.84
2022-12-25T02:00:18.631Z,97229.44
2022-12-25T02:02:45.677Z,97234.44
2022-12-25T02:05:20.107Z,97227.81
2022-12-25T02:07:47.036Z,97222.84
2022-12-25T02:10:13.824Z,97225.44
2022-12-25T02:12:41.462Z,97226.75
2022-12-25T02:15:35.045Z,97221.28
2022-12-25T02:18:12.249Z,97203.94
2022-12-25T02:20:53.793Z,97212.50
2022-12-25T02:23:39.104Z,97210.47
2022-12-25T02:26:16.922Z,97204.78
2022-12-25T02:28:58.659Z,97197.78
2022-12-25T02:31:51.220Z,97203.53
2022-12-25T02:34:25.802Z,97198.94
2022-12-25T02:37:05.522Z,97203.81
2022-12-25T02:40:01.564Z,97200.94
2022-12-25T02:43:04.555Z,97200.59
2022-12-25T02:46:01.043Z,97189.75
2022-12-25T02:48:49.405Z,97193.00
2022-12-25T02:51:37.149Z,97192.31
2022-12-25T02:54:25.990Z,97195.84
2022-12-25T02:57:12.886Z,97203.63
2022-12-25T03:00:01.154Z,97211.69
2022-12-25T03:02:49.404Z,97210.41
2022-12-25T03:05:39.546Z,97199.50
2022-12-25T03:08:12.895Z,97201.66
2022-12-25T03:11:03.386Z,97213.78
2022-12-25T03:13:37.034Z,97207.13
2022-12-25T03:16:22.549Z,97208.00
2022-12-25T03:18:48.984Z,97204.78
2022-12-25T03:21:33.738Z,97199.66
2022-12-25T03:24:20.512Z,97204.63
2022-12-25T03:26:55.760Z,97202.31
2022-12-25T03:29:49.051Z,97204.34
2022-12-25T03:32:43.101Z,97206.06
2022-12-25T03:35:33.179Z,97190.44
2022-12-25T03:38:52.290Z,97202.53
2022-12-25T03:41:47.844Z,97193.31
2022-12-25T03:44:45.160Z,97182.69
2022-12-25T03:47:52.172Z,97181.06
2022-12-25T03:50:43.212Z,97184.88
2022-12-25T03:53:34.381Z,97177.50
2022-12-25T03:56:20.167Z,97182.69
2022-12-25T03:59:10.611Z,97168.50
2022-12-25T04:01:55.388Z,97172.34
2022-12-25T04:04:40.617Z,97164.56
2022-12-25T04:07:25.377Z,97162.06
2022-12-25T04:10:30.004Z,97160.31
2022-12-25T04:13:15.271Z,97165.31
2022-12-25T04:16:00.007Z,97176.41
2022-12-25T04:18:44.971Z,97174.78
2022-12-25T04:21:29.630Z,97156.00
2022-12-25T04:24:14.385Z,97159.63
2022-12-25T04:26:59.331Z,97154.19
2022-12-25T04:29:44.080Z,97163.66
2022-12-25T04:32:28.954Z,97168.63
2022-12-25T04:35:13.651Z,97174.09
2022-12-25T04:37:40.010Z,97171.72
2022-12-25T04:40:06.909Z,97159.63
2022-12-25T04:42:33.376Z,97155.44
2022-12-25T04:44:59.744Z,97161.66
2022-12-25T04:47:26.086Z,97153.97
2022-12-25T04:49:52.466Z,97145.94
2022-12-25T04:52:18.842Z,97156.94
2022-12-25T04:54:45.221Z,97152.94
2022-12-25T04:57:11.547Z,97158.56
2022-12-25T04:59:37.917Z,97163.28
2022-12-25T05:02:04.417Z,97164.31
2022-12-25T05:04:31.022Z,97165.09
2022-12-25T05:06:57.382Z,97166.41
2022-12-25T05:09:25.475Z,97154.03
2022-12-25T05:11:51.836Z,97153.19
2022-12-25T05:14:18.629Z,97147.84
2022-12-25T05:16:45.131Z,97157.88
2022-12-25T05:19:11.491Z,97171.31
2022-12-25T05:21:37.864Z,97154.03
2022-12-25T05:24:04.396Z,97164.22
2022-12-25T05:26:30.789Z,97147.53
2022-12-25T05:28:57.164Z,97156.84
2022-12-25T05:31:23.671Z,97153.50
2022-12-25T05:33:51.508Z,97158.88
2022-12-25T05:36:18.679Z,97156.28
2022-12-25T05:38:45.026Z,97153.50
2022-12-25T05:41:11.413Z,97146.69
2022-12-25T05:43:37.803Z,97145.50
2022-12-25T05:46:06.910Z,97140.63
2022-12-25T05:48:35.586Z,97136.31
2022-12-25T05:51:11.995Z,97140.16
2022-12-25T05:53:39.496Z,97139.66
2022-12-25T05:56:07.420Z,97143.50
2022-12-25T05:58:35.141Z,97136.59
2022-12-25T06:01:01.973Z,97145.50
2022-12-25T06:03:28.594Z,97137.56
2022-12-25T06:05:55.195Z,97121.34
2022-12-25T06:08:21.739Z,97129.50
2022-12-25T06:10:48.215Z,97122.63
2022-12-25T06:13:14.710Z,97120.97
2022-12-25T06:15:41.857Z,97117.84
2022-12-25T06:18:08.382Z,97099.97
2022-12-25T06:20:35.320Z,97115.63
2022-12-25T06:23:02.149Z,97109.88
2022-12-25T06:25:28.619Z,97106.81
2022-12-25T06:27:54.986Z,97104.31
2022-12-25T06:30:21.640Z,97111.56
2022-12-25T06:32:48.036Z,97113.88
2022-12-25T06:35:14.450Z,97105.63
2022-12-25T06:37:40.824Z,97102.97
2022-12-25T06:40:07.932Z,97108.34
2022-12-25T06:42:34.312Z,97103.25
2022-12-25T06:45:00.654Z,97101.94
2022-12-25T06:47:27.051Z,97097.53
2022-12-25T06:49:53.393Z,97105.56
2022-12-25T06:52:19.758Z,97105.16
2022-12-25T06:54:46.904Z,97114.94
2022-12-25T06:57:13.279Z,97119.03
2022-12-25T06:59:39.639Z,97121.91
2022-12-25T07:02:06.216Z,97121.53
2022-12-25T07:04:41.768Z,97114.16
2022-12-25T07:07:09.785Z,97127.00
2022-12-25T07:09:38.562Z,97125.19
2022-12-25T07:12:14.447Z,97115.69
2022-12-25T07:14:41.141Z,97116.66
2022-12-25T07:17:07.525Z,97102.69
2022-12-25T07:19:34.686Z,97108.13
2022-12-25T07:22:03.556Z,97106.09
2022-12-25T07:24:29.906Z,97116.19
2022-12-25T07:26:56.258Z,97105.28
2022-12-25T07:29:22.632Z,97103.25
2022-12-25T07:31:49.126Z,97090.69
2022-12-25T07:34:17.760Z,97083.69
2022-12-25T07:36:44.138Z,97082.91
2022-12-25T07:39:11.484Z,97090.31
2022-12-25T07:41:38.105Z,97081.59
2022-12-25T07:44:04.734Z,97084.59
2022-12-25T07:46:31.229Z,97088.31
2022-12-25T07:48:57.608Z,97094.50
2022-12-25T07:51:23.995Z,97102.00
2022-12-25T07:53:50.344Z,97103.44
2022-12-25T07:56:19.336Z,97088.31
2022-12-25T07:58:46.892Z,97090.31
2022-12-25T08:01:17.661Z,97058.31
2022-12-25T08:03:49.338Z,97074.44
2022-12-25T08:06:15.813Z,97063.59
2022-12-25T08:08:42.228Z,97044.25
2022-12-25T08:11:09.674Z,97041.56
2022-12-25T08:13:36.981Z,97037.19
2022-12-25T08:16:07.791Z,97036.53
2022-12-25T08:18:36.116Z,97048.97
2022-12-25T08:21:08.188Z,97072.91
2022-12-25T08:23:36.314Z,97075.72
2022-12-25T08:26:05.621Z,97076.75
2022-12-25T08:28:33.350Z,97093.03
2022-12-25T08:30:59.919Z,97081.91
2022-12-25T08:33:26.385Z,97070.63
2022-12-25T08:35:52.745Z,97079.63
2022-12-25T08:38:19.156Z,97086.84
2022-12-25T08:40:45.535Z,97083.00
2022-12-25T08:43:11.901Z,97083.19
2022-12-25T08:45:38.285Z,97081.66
2022-12-25T08:48:04.669Z,97095.06
2022-12-25T08:50:31.088Z,97089.81
2022-12-25T08:52:57.413Z,97087.22
2022-12-25T08:55:23.768Z,97096.78
2022-12-25T08:57:53.286Z,97094.03
2022-12-25T09:00:19.975Z,97096.88
2022-12-25T09:02:46.402Z,97091.13
2022-12-25T09:05:12.878Z,97084.72
2022-12-25T09:07:39.237Z,97090.56
2022-12-25T09:10:06.304Z,97073.03
2022-12-25T09:12:32.652Z,97077.38
2022-12-25T09:14:59.019Z,97085.50
2022-12-25T09:17:25.364Z,97078.59
2022-12-25T09:19:51.764Z,97086.53
2022-12-25T09:22:18.135Z,97085.41
2022-12-25T09:24:44.496Z,97078.28
2022-12-25T09:27:10.850Z,97083.38
2022-12-25T09:29:38.930Z,97071.09
2022-12-25T09:32:06.798Z,97072.34
2022-12-25T09:34:33.162Z,97062.56
2022-12-25T09:36:59.506Z,97062.41
2022-12-25T09:39:26.729Z,97048.50
2022-12-25T09:41:58.614Z,97050.63
2022-12-25T09:44:28.918Z,97042.19
2022-12-25T09:47:02.556Z,97036.56
2022-12-25T09:49:49.007Z,97031.06
2022-12-25T09:52:33.778Z,97017.75
2022-12-25T09:55:07.844Z,97009.69
2022-12-25T09:57:34.260Z,96997.69
2022-12-25T10:00:00.693Z,96997.69
2022-12-25T10:03:05.025Z,97012.06
2022-12-25T10:05:49.321Z,97008.91
2022-12-25T10:08:34.109Z,97019.63
2022-12-25T10:11:26.724Z,97023.97
2022-12-25T10:14:03.129Z,97023.56
2022-12-25T10:16:37.309Z,97019.53
2022-12-25T10:19:25.015Z,97026.81
2022-12-25T10:21:57.656Z,97005.44
2022-12-25T10:24:38.761Z,97009.94
2022-12-25T10:27:17.248Z,97014.34
2022-12-25T10:29:46.409Z,97025.56
2022-12-25T10:32:13.252Z,97017.13
2022-12-25T10:34:41.760Z,97014.34
2022-12-25T10:37:11.155Z,97010.63
2022-12-25T10:39:42.420Z,97006.50
2022-12-25T10:42:34.418Z,97007.34
2022-12-25T10:45:03.793Z,96994.97
2022-12-25T10:47:33.605Z,96982.91
2022-12-25T10:50:01.885Z,96997.28
2022-12-25T10:52:29.479Z,96986.16
2022-12-25T10:54:56.455Z,96982.41
2022-12-25T10:57:25.465Z,96965.63
2022-12-25T10:59:57.458Z,96973.81
2022-12-25T11:02:34.666Z,96971.22
2022-12-25T11:05:11.244Z,96971.22
2022-12-25T11:07:51.136Z,96978.03
2022-12-25T11:10:32.754Z,96992.03
2022-12-25T11:13:00.893Z,96983.75
2022-12-25T11:15:42.288Z,96987.44
2022-12-25T11:18:30.079Z,96983.88
2022-12-25T11:20:58.060Z,96981.47
2022-12-25T11:23:26.493Z,96972.72
2022-12-25T11:26:07.794Z,96972.47
2022-12-25T11:28:37.399Z,96979.00
2022-12-25T11:31:19.279Z,96975.78
2022-12-25T11:33:58.444Z,96960.53
2022-12-25T11:36:48.088Z,96955.06
2022-12-25T11:39:25.334Z,96932.88
2022-12-25T11:41:57.779Z,96913.50
2022-12-25T11:45:01.007Z,96907.41
2022-12-25T11:47:30.014Z,96875.59
2022-12-25T11:50:04.676Z,96854.22
2022-12-25T11:52:37.495Z,96883.00
2022-12-25T11:55:30.172Z,96901.16
2022-12-25T11:58:01.298Z,96878.00
2022-12-25T12:00:31.256Z,96872.38
2022-12-25T12:03:16.045Z,96878.78
2022-12-25T12:05:51.269Z,96883.31
2022-12-25T12:08:17.640Z,96888.38
2022-12-25T12:11:18.573Z,96872.06
2022-12-25T12:14:03.402Z,96870.38
2022-12-25T12:16:30.122Z,96862.91
2022-12-25T12:18:56.565Z,96862.13
2022-12-25T12:21:25.999Z,96870.06
2022-12-25T12:24:19.012Z,96859.66
2022-12-25T12:26:47.290Z,96853.78
2022-12-25T12:29:29.882Z,96855.88
2022-12-25T12:32:03.134Z,96852.66
2022-12-25T12:34:42.516Z,96855.41
2022-12-25T12:37:37.039Z,96864.09
2022-12-25T12:40:05.680Z,96859.22
2022-12-25T12:42:46.226Z,96863.06
2022-12-25T12:45:17.695Z,96862.13
2022-12-25T12:47:47.928Z,96862.19
2022-12-25T12:50:35.742Z,96857.47
2022-12-25T12:53:23.989Z,96853.47
2022-12-25T12:55:51.352Z,96854.41
2022-12-25T12:58:33.368Z,96862.91
2022-12-25T13:01:24.037Z,96878.47
2022-12-25T13:03:57.572Z,96873.59
2022-12-25T13:06:29.563Z,96888.59
2022-12-25T13:09:10.779Z,96870.25
2022-12-25T13:11:41.444Z,96876.38
2022-12-25T13:14:16.093Z,96877.94
2022-12-25T13:16:45.109Z,96872.41
2022-12-25T13:19:18.312Z,96867.66
2022-12-25T13:21:56.448Z,96872.09
2022-12-25T13:24:25.721Z,96856.88
2022-12-25T13:26:52.105Z,96840.22
2022-12-25T13:29:36.704Z,96853.78
2022-12-25T13:32:05.740Z,96852.41
2022-12-25T13:34:36.252Z,96827.41
2022-12-25T13:37:17.715Z,96835.44
2022-12-25T13:40:06.351Z,96845.81
2022-12-25T13:42:39.876Z,96846.72
2022-12-25T13:45:21.030Z,96866.72
2022-12-25T13:47:53.073Z,96860.72
2022-12-25T13:50:27.829Z,96834.81
2022-12-25T13:52:56.206Z,96837.72
2022-12-25T13:55:25.576Z,96840.63
2022-12-25T13:58:02.483Z,96825.22
2022-12-25T14:00:46.439Z,96841.66
2022-12-25T14:03:39.031Z,96854.00
2022-12-25T14:06:27.552Z,96854.09
2022-12-25T14:08:56.121Z,96843.41
2022-12-25T14:11:25.811Z,96838.75
2022-12-25T14:13:56.521Z,96834.91
2022-12-25T14:16:23.705Z,96845.88
2022-12-25T14:18:58.820Z,96859.59
2022-12-25T14:21:30.140Z,96854.31
2022-12-25T14:23:56.656Z,96840.63
2022-12-25T14:26:28.896Z,96854.22
2022-12-25T14:29:11.169Z,96856.13
2022-12-25T14:31:43.773Z,96857.22
2022-12-25T14:34:20.562Z,96859.28
2022-12-25T14:36:48.090Z,96862.75
2022-12-25T14:39:29.843Z,96859.06
2022-12-25T14:41:56.616Z,96871.59
2022-12-25T14:44:41.197Z,96860.75
2022-12-25T14:47:10.569Z,96867.03
2022-12-25T14:49:37.719Z,96869.00
2022-12-25T14:52:25.435Z,96853.44
2022-12-25T14:55:01.898Z,96833.16
2022-12-25T14:57:34.557Z,96846.56
2022-12-25T15:00:05.710Z,96840.63
2022-12-25T15:02:40.669Z,96834.69
2022-12-25T15:05:27.405Z,96837.28
2022-12-25T15:08:08.728Z,96844.34
2022-12-25T15:13:22.107Z,96853.75
2022-12-25T15:16:00.692Z,96842.47
2022-12-25T15:18:34.320Z,96836.03
2022-12-25T15:21:00.777Z,96848.25
2022-12-25T15:23:27.311Z,96845.81
2022-12-25T15:25:53.769Z,96833.28
2022-12-25T15:28:20.742Z,96838.94
2022-12-25T15:30:47.635Z,96843.78
2022-12-25T15:33:16.433Z,96848.47
2022-12-25T15:35:44.350Z,96864.06
2022-12-25T15:38:12.607Z,96862.38
2022-12-25T15:40:39.967Z,96844.06
2022-12-25T15:43:14.414Z,96849.06
2022-12-25T15:45:47.294Z,96860.78
2022-12-25T15:48:13.662Z,96864.31
2022-12-25T15:50:40.061Z,96860.47
2022-12-25T15:53:06.441Z,96850.84
2022-12-25T15:55:34.029Z,96857.78
2022-12-25T15:58:00.410Z,96841.59
2022-12-25T16:00:27.072Z,96850.25
2022-12-25T16:02:53.751Z,96841.06
2022-12-25T16:05:20.821Z,96839.63
2022-12-25T16:07:47.494Z,96845.13
2022-12-25T16:10:19.109Z,96834.31
2022-12-25T16:12:46.201Z,96829.91
2022-12-25T16:15:14.402Z,96827.13
2022-12-25T16:17:40.911Z,96825.56
2022-12-25T16:20:08.616Z,96807.13
2022-12-25T16:22:39.798Z,96809.97
2022-12-25T16:25:18.529Z,96818.41
2022-12-25T16:27:45.341Z,96814.56
2022-12-25T16:30:15.049Z,96826.47
2022-12-25T16:32:42.339Z,96829.81
2022-12-25T16:35:09.489Z,96838.28
2022-12-25T16:37:36.779Z,96830.63
2022-12-25T16:40:03.920Z,96838.72
2022-12-25T16:42:30.348Z,96852.69
2022-12-25T16:44:56.721Z,96838.25
2022-12-25T16:47:23.115Z,96859.31
2022-12-25T16:49:49.473Z,96866.03
2022-12-25T16:52:15.823Z,96861.78
2022-12-25T16:54:42.196Z,96856.31
2022-12-25T16:57:08.579Z,96859.53
2022-12-25T16:59:35.804Z,96866.59
2022-12-25T17:02:02.284Z,96867.09
2022-12-25T17:04:28.870Z,96858.53
2022-12-25T17:06:55.493Z,96856.13
2022-12-25T17:09:21.844Z,96843.78
2022-12-25T17:11:48.226Z,96852.66
2022-12-25T17:14:14.559Z,96834.81
2022-12-25T17:16:41.091Z,96837.16
2022-12-25T17:19:17.573Z,96832.63
2022-12-25T17:21:44.226Z,96832.03
2022-12-25T17:24:11.078Z,96826.84
2022-12-25T17:26:37.632Z,96832.25
2022-12-25T17:29:04.080Z,96832.00
2022-12-25T17:31:30.500Z,96843.47
2022-12-25T17:33:57.604Z,96846.22
2022-12-25T17:36:23.975Z,96825.78
2022-12-25T17:38:50.429Z,96832.50
2022-12-25T17:41:18.541Z,96844.88
2022-12-25T17:43:45.815Z,96838.19
2022-12-25T17:46:22.304Z,96848.88
2022-12-25T17:48:50.054Z,96836.28
2022-12-25T17:51:21.073Z,96846.06
2022-12-25T17:53:50.155Z,96828.34
2022-12-25T17:56:17.709Z,96828.19
2022-12-25T17:58:44.643Z,96834.91
2022-12-25T18:01:16.383Z,96833.91
2022-12-25T18:03:44.497Z,96828.09
2022-12-25T18:06:13.390Z,96836.22
2022-12-25T18:08:41.360Z,96822.50
2022-12-25T18:11:09.771Z,96801.44
2022-12-25T18:13:37.072Z,96807.25
2022-12-25T18:16:06.185Z,96805.78
2022-12-25T18:18:33.369Z,96811.88
2022-12-25T18:20:59.855Z,96808.22
2022-12-25T18:23:26.362Z,96811.28
2022-12-25T18:25:52.738Z,96813.75
2022-12-25T18:28:19.366Z,96807.94
2022-12-25T18:30:46.246Z,96819.53
2022-12-25T18:33:13.239Z,96827.78
2022-12-25T18:35:43.542Z,96839.25
2022-12-25T18:38:11.266Z,96831.16
2022-12-25T18:40:46.580Z,96823.50
2022-12-25T18:43:14.390Z,96814.50
2022-12-25T18:45:41.752Z,96818.34
2022-12-25T18:48:09.624Z,96820.00
2022-12-25T18:50:40.356Z,96824.28
2022-12-25T18:53:07.068Z,96814.97
2022-12-25T18:55:33.581Z,96814.66
2022-12-25T18:57:59.997Z,96822.44
2022-12-25T19:00:27.910Z,96817.56
2022-12-25T19:02:58.542Z,96812.06
2022-12-25T19:05:25.234Z,96813.28
2022-12-25T19:07:51.909Z,96812.34
2022-12-25T19:10:18.499Z,96812.63
2022-12-25T19:12:44.857Z,96814.91
2022-12-25T19:15:11.695Z,96810.44
2022-12-25T19:17:38.151Z,96823.41
2022-12-25T19:20:06.024Z,96820.69
2022-12-25T19:22:32.663Z,96829.84
2022-12-25T19:24:59.127Z,96815.16
2022-12-25T19:27:25.519Z,96816.25
2022-12-25T19:29:51.902Z,96812.06
2022-12-25T19:32:18.306Z,96815.41
2022-12-25T19:34:44.716Z,96810.53
2022-12-25T19:37:11.137Z,96814.16
2022-12-25T19:39:37.568Z,96827.75
2022-12-25T19:42:04.023Z,96810.50
2022-12-25T19:44:30.378Z,96821.44
2022-12-25T19:46:56.787Z,96846.59
2022-12-25T19:49:23.143Z,96841.81
2022-12-25T19:51:49.511Z,96834.53
2022-12-25T19:54:17.210Z,96819.66
2022-12-25T19:56:43.588Z,96822.09
2022-12-25T19:59:11.832Z,96824.50
2022-12-25T20:01:38.993Z,96821.13
2022-12-25T20:04:07.955Z,96834.91
2022-12-25T20:06:35.324Z,96814.31
2022-12-25T20:09:06.168Z,96827.53
2022-12-25T20:11:33.970Z,96831.69
2022-12-25T20:14:01.027Z,96828.16
2022-12-25T20:16:27.682Z,96829.09
2022-12-25T20:18:54.221Z,96831.84
2022-12-25T20:21:22.657Z,96823.63
2022-12-25T20:23:51.255Z,96826.69
2022-12-25T20:26:20.121Z,96820.09
2022-12-25T20:28:46.668Z,96823.63
2022-12-25T20:31:20.608Z,96819.38
2022-12-25T20:33:47.461Z,96823.31
2022-12-25T20:36:14.744Z,96826.56
2022-12-25T20:38:41.454Z,96813.25
2022-12-25T20:41:27.877Z,96828.81
2022-12-25T20:43:54.831Z,96836.72
2022-12-25T20:46:22.045Z,96832.44
2022-12-25T20:48:48.453Z,96834.09
2022-12-25T20:51:20.803Z,96845.53
2022-12-25T20:53:48.071Z,96849.03
2022-12-25T20:56:16.533Z,96843.28
2022-12-25T20:58:43.098Z,96849.81
2022-12-25T21:01:12.501Z,96856.81
2022-12-25T21:03:38.974Z,96863.66
2022-12-25T21:06:06.270Z,96858.13
2022-12-25T21:08:32.663Z,96864.06
2022-12-25T21:11:00.883Z,96865.41
2022-12-25T21:13:30.639Z,96879.78
2022-12-25T21:15:57.943Z,96878.38
2022-12-25T21:18:26.546Z,96867.09
2022-12-25T21:20:56.078Z,96867.25
2022-12-25T21:23:23.536Z,96854.53
2022-12-25T21:25:49.943Z,96871.75
2022-12-25T21:28:16.779Z,96868.03
2022-12-25T21:30:43.225Z,96882.69
2022-12-25T21:33:30.936Z,96882.31
2022-12-25T21:36:05.362Z,96889.78
2022-12-25T21:38:31.996Z,96868.25
2022-12-25T21:41:10.224Z,96862.13
2022-12-25T21:43:38.622Z,96860.88
2022-12-25T21:46:11.745Z,96873.53
2022-12-25T21:48:38.796Z,96871.81
2022-12-25T21:51:34.986Z,96863.09
2022-12-25T21:54:02.405Z,96862.94
2022-12-25T21:56:37.080Z,96872.53
2022-12-25T21:59:07.879Z,96872.81
2022-12-25T22:01:35.889Z,96865.75
2022-12-25T22:04:05.237Z,96858.16
2022-12-25T22:06:51.445Z,96854.06
2022-12-25T22:09:18.023Z,96861.97
2022-12-25T22:12:03.068Z,96858.00
2022-12-25T22:14:51.804Z,96873.41
2022-12-25T22:17:59.949Z,96877.50
2022-12-25T22:20:38.123Z,96870.03
2022-12-25T22:23:05.031Z,96876.72
2022-12-25T22:25:31.617Z,96881.44
2022-12-25T22:27:58.181Z,96887.97
2022-12-25T22:30:27.555Z,96894.69
2022-12-25T22:32:54.373Z,96906.28
2022-12-25T22:35:20.873Z,96896.59
2022-12-25T22:37:48.083Z,96892.19
2022-12-25T22:40:16.704Z,96907.97
2022-12-25T22:42:43.129Z,96888.44
2022-12-25T22:45:10.148Z,96905.69
2022-12-25T22:47:36.724Z,96918.75
2022-12-25T22:50:03.527Z,96915.56
2022-12-25T22:52:29.938Z,96908.66
2022-12-25T22:54:56.415Z,96885.19
2022-12-25T22:57:22.837Z,96890.44
2022-12-25T22:59:51.725Z,96894.22
2022-12-25T23:02:18.312Z,96903.00
2022-12-25T23:04:44.766Z,96898.72
2022-12-25T23:07:14.181Z,96914.31
2022-12-25T23:09:40.561Z,96907.78
2022-12-25T23:12:07.030Z,96902.63
2022-12-25T23:14:39.259Z,96909.91
2022-12-25T23:17:30.935Z,96931.28
2022-12-25T23:20:17.499Z,96893.91
2022-12-25T23:23:02.678Z,96903.78
2022-12-25T23:25:48.056Z,96908.97
2022-12-25T23:28:14.521Z,96918.34
2022-12-25T23:30:40.913Z,96908.19
2022-12-25T23:33:07.253Z,96897.66
2022-12-25T23:35:33.667Z,96914.31
2022-12-25T23:38:00.013Z,96908.66
2022-12-25T23:40:26.390Z,96911.25
2022-12-25T23:42:52.896Z,96910.09
2022-12-25T23:45:19.261Z,96921.41
2022-12-25T23:47:45.614Z,96908.31
2022-12-25T23:50:12.006Z,96901.78
2022-12-25T23:52:38.452Z,96898.84
2022-12-25T23:55:05.553Z,96896.88
2022-12-25T23:57:31.931Z,96912.34
2022-12-25T23:59:58.511Z,96905.13
